createdAt,value
2024-01-17T00:00:11.718Z,22.8
2024-01-17T00:02:17.897Z,22.79
2024-01-17T00:04:24.351Z,22.79
2024-01-17T00:06:29.918Z,22.78
2024-01-17T00:08:35.243Z,22.79
2024-01-17T00:10:40.958Z,22.78
2024-01-17T00:12:46.448Z,22.78
2024-01-17T00:14:51.869Z,22.77
2024-01-17T00:16:57.608Z,22.77
2024-01-17T00:19:03.015Z,22.77
2024-01-17T00:21:08.824Z,22.78
2024-01-17T00:23:14.438Z,22.78
2024-01-17T00:25:19.777Z,22.78
2024-01-17T00:27:25.145Z,22.79
2024-01-17T00:29:30.562Z,22.78
2024-01-17T00:31:35.992Z,22.78
2024-01-17T00:33:41.476Z,22.77
2024-01-17T00:35:47.402Z,22.76
2024-01-17T00:37:52.937Z,22.76
2024-01-17T00:39:58.482Z,22.75
2024-01-17T00:42:04.204Z,22.75
2024-01-17T00:44:10.174Z,22.73
2024-01-17T00:46:15.703Z,22.73
2024-01-17T00:48:21.187Z,22.72
2024-01-17T00:50:27.034Z,22.72
2024-01-17T00:52:32.459Z,22.71
2024-01-17T00:54:37.939Z,22.7
2024-01-17T00:56:43.654Z,22.7
2024-01-17T00:58:49.294Z,22.69
2024-01-17T01:00:54.837Z,22.69
2024-01-17T01:03:00.520Z,22.68
2024-01-17T01:05:05.906Z,22.67
2024-01-17T01:07:11.342Z,22.67
2024-01-17T01:09:16.827Z,22.66
2024-01-17T01:11:22.584Z,22.65
2024-01-17T01:13:28.280Z,22.66
2024-01-17T01:15:33.508Z,22.66
2024-01-17T01:17:39.058Z,22.65
2024-01-17T01:19:44.813Z,22.65
2024-01-17T01:21:50.255Z,22.65
2024-01-17T01:23:55.801Z,22.64
2024-01-17T01:26:01.131Z,22.65
2024-01-17T01:28:06.580Z,22.65
2024-01-17T01:30:12.222Z,22.64
2024-01-17T01:32:17.875Z,22.63
2024-01-17T01:34:23.223Z,22.63
2024-01-17T01:36:28.943Z,22.63
2024-01-17T01:38:34.542Z,22.63
2024-01-17T01:40:40.240Z,22.63
2024-01-17T01:42:45.785Z,22.63
2024-01-17T01:44:51.237Z,22.64
2024-01-17T01:46:56.560Z,22.63
2024-01-17T01:49:02.527Z,22.63
2024-01-17T01:51:08.610Z,22.64
2024-01-17T01:53:14.104Z,22.63
2024-01-17T01:55:19.333Z,22.63
2024-01-17T01:57:24.668Z,22.62
2024-01-17T01:59:30.272Z,22.63
2024-01-17T02:01:35.874Z,22.63
2024-01-17T02:03:41.307Z,22.63
2024-01-17T02:05:46.920Z,22.63
2024-01-17T02:07:52.590Z,22.63
2024-01-17T02:09:57.943Z,22.64
2024-01-17T02:12:03.565Z,22.63
2024-01-17T02:14:09.508Z,22.63
2024-01-17T02:16:14.859Z,22.61
2024-01-17T02:18:20.478Z,22.6
2024-01-17T02:20:26.268Z,22.57
2024-01-17T02:22:31.790Z,22.56
2024-01-17T02:24:37.274Z,22.54
2024-01-17T02:26:42.890Z,22.53
2024-01-17T02:28:48.406Z,22.52
2024-01-17T02:30:54.091Z,22.5
2024-01-17T02:32:59.817Z,22.49
2024-01-17T02:35:05.746Z,22.48
2024-01-17T02:37:11.289Z,22.46
2024-01-17T02:39:16.843Z,22.44
2024-01-17T02:41:22.388Z,22.42
2024-01-17T02:43:28.132Z,22.41
2024-01-17T02:45:33.699Z,22.38
2024-01-17T02:47:39.066Z,22.36
2024-01-17T02:49:44.614Z,22.35
2024-01-17T02:51:50.105Z,22.34
2024-01-17T02:53:55.799Z,22.32
2024-01-17T02:56:01.589Z,22.31
2024-01-17T02:58:07.027Z,22.29
2024-01-17T03:00:12.491Z,22.27
2024-01-17T03:02:18.011Z,22.26
2024-01-17T03:04:23.353Z,22.25
2024-01-17T03:06:28.596Z,22.23
2024-01-17T03:08:34.131Z,22.21
2024-01-17T03:10:39.572Z,22.2
2024-01-17T03:12:45.098Z,22.2
2024-01-17T03:14:50.455Z,22.18
2024-01-17T03:16:55.893Z,22.15
2024-01-17T03:19:01.479Z,22.14
2024-01-17T03:21:07.418Z,22.13
2024-01-17T03:23:12.830Z,22.13
2024-01-17T03:25:18.374Z,22.11
2024-01-17T03:27:23.707Z,22.11
2024-01-17T03:29:29.069Z,22.1
2024-01-17T03:31:34.701Z,22.1
2024-01-17T03:33:40.213Z,22.1
2024-01-17T03:35:46.242Z,22.09
2024-01-17T03:37:51.841Z,22.07
2024-01-17T03:39:57.283Z,22.06
2024-01-17T03:42:02.890Z,22.06
2024-01-17T03:44:08.662Z,22.05
2024-01-17T03:46:14.111Z,22.04
2024-01-17T03:48:19.710Z,22.03
2024-01-17T03:50:25.437Z,22.03
2024-01-17T03:52:30.863Z,22.01
2024-01-17T03:54:36.388Z,22.01
2024-01-17T03:56:41.758Z,22.01
2024-01-17T03:58:47.572Z,22
2024-01-17T04:00:52.826Z,22.01
2024-01-17T04:02:58.469Z,22
2024-01-17T04:05:04.342Z,21.99
2024-01-17T04:08:05.342Z,21.97
2024-01-17T04:10:10.585Z,21.97
2024-01-17T04:12:15.932Z,21.97
2024-01-17T04:14:21.459Z,21.96
2024-01-17T04:16:26.691Z,21.94
2024-01-17T04:18:32.095Z,21.94
2024-01-17T04:20:37.890Z,21.94
2024-01-17T04:22:43.327Z,21.94
2024-01-17T04:24:48.682Z,21.93
2024-01-17T04:26:54.214Z,21.92
2024-01-17T04:28:59.756Z,21.91
2024-01-17T04:31:05.214Z,21.9
2024-01-17T04:33:10.949Z,21.89
2024-01-17T04:35:16.884Z,21.88
2024-01-17T04:37:22.322Z,21.87
2024-01-17T04:39:27.973Z,21.86
2024-01-17T04:41:33.433Z,21.85
2024-01-17T04:43:38.824Z,21.84
2024-01-17T04:45:44.159Z,21.84
2024-01-17T04:47:49.677Z,21.82
2024-01-17T04:49:55.666Z,21.82
2024-01-17T04:52:01.594Z,21.81
2024-01-17T04:54:07.077Z,21.81
2024-01-17T04:56:13.224Z,21.8
2024-01-17T04:58:18.964Z,21.8
2024-01-17T05:00:24.316Z,21.8
2024-01-17T05:02:29.629Z,21.79
2024-01-17T05:04:35.000Z,21.79
2024-01-17T05:06:40.454Z,21.77
2024-01-17T05:08:46.395Z,21.76
2024-01-17T05:10:52.324Z,21.73
2024-01-17T05:12:57.648Z,21.7
2024-01-17T05:15:03.058Z,21.67
2024-01-17T05:17:09.098Z,21.64
2024-01-17T05:19:16.147Z,21.63
2024-01-17T05:21:23.914Z,21.61
2024-01-17T05:23:29.497Z,21.6
2024-01-17T05:25:35.008Z,21.6
2024-01-17T05:27:40.454Z,21.57
2024-01-17T05:29:45.954Z,21.57
2024-01-17T05:31:51.317Z,21.55
2024-01-17T05:33:57.097Z,21.53
2024-01-17T05:36:02.902Z,21.5
2024-01-17T05:38:08.466Z,21.49
2024-01-17T05:40:14.009Z,21.48
2024-01-17T05:42:19.602Z,21.47
2024-01-17T05:44:24.880Z,21.45
2024-01-17T05:46:30.333Z,21.44
2024-01-17T05:48:35.932Z,21.43
2024-01-17T05:50:41.853Z,21.42
2024-01-17T05:52:47.370Z,21.41
2024-01-17T05:54:52.701Z,21.4
2024-01-17T05:56:58.162Z,21.39
2024-01-17T05:59:03.647Z,21.38
2024-01-17T06:01:08.794Z,21.38
2024-01-17T06:03:14.393Z,21.38
2024-01-17T06:05:20.223Z,21.39
2024-01-17T06:07:25.637Z,21.4
2024-01-17T06:09:31.068Z,21.4
2024-01-17T06:11:36.440Z,21.41
2024-01-17T06:13:41.776Z,21.4
2024-01-17T06:15:47.338Z,21.39
2024-01-17T06:17:52.817Z,21.37
2024-01-17T06:19:58.329Z,21.34
2024-01-17T06:22:03.833Z,21.32
2024-01-17T06:24:09.370Z,21.29
2024-01-17T06:26:15.011Z,21.26
2024-01-17T06:28:20.448Z,21.23
2024-01-17T06:30:25.814Z,21.22
2024-01-17T06:32:31.749Z,21.19
2024-01-17T06:34:38.349Z,21.16
2024-01-17T06:36:44.472Z,21.15
2024-01-17T06:38:49.743Z,21.15
2024-01-17T06:40:55.251Z,21.15
2024-01-17T06:43:00.693Z,21.15
2024-01-17T06:45:06.045Z,21.15
2024-01-17T06:47:11.470Z,21.15
2024-01-17T06:49:16.868Z,21.15
2024-01-17T06:51:22.399Z,21.15
2024-01-17T06:53:27.818Z,21.15
2024-01-17T06:55:33.337Z,21.15
2024-01-17T06:57:38.689Z,21.15
2024-01-17T06:59:44.334Z,21.06
2024-01-17T07:01:49.853Z,21.02
2024-01-17T07:03:55.326Z,21.03
2024-01-17T07:06:00.786Z,21.06
2024-01-17T07:08:06.608Z,21.08
2024-01-17T07:10:11.918Z,21.1
2024-01-17T07:12:17.557Z,21.11
2024-01-17T07:14:23.207Z,21.12
2024-01-17T07:16:28.666Z,21.13
2024-01-17T07:18:34.044Z,21.15
2024-01-17T07:20:40.198Z,21.16
2024-01-17T07:22:45.696Z,21.18
2024-01-17T07:24:51.475Z,21.2
2024-01-17T07:26:56.809Z,21.23
2024-01-17T07:29:02.433Z,21.25
2024-01-17T07:31:07.980Z,21.26
2024-01-17T07:33:13.375Z,21.27
2024-01-17T07:35:19.064Z,21.28
2024-01-17T07:37:24.488Z,21.29
2024-01-17T07:39:30.142Z,21.29
2024-01-17T07:41:35.680Z,21.3
2024-01-17T07:43:41.305Z,21.29
2024-01-17T07:45:46.861Z,21.29
2024-01-17T07:47:52.273Z,21.29
2024-01-17T07:49:58.196Z,21.29
2024-01-17T07:52:08.905Z,21.28
2024-01-17T07:54:14.201Z,21.29
2024-01-17T07:56:19.700Z,21.28
2024-01-17T07:58:25.018Z,21.27
2024-01-17T08:00:30.365Z,21.26
2024-01-17T08:02:35.595Z,21.26
2024-01-17T08:04:41.274Z,21.26
2024-01-17T08:06:46.627Z,21.25
2024-01-17T08:08:52.142Z,21.26
2024-01-17T08:10:57.766Z,21.26
2024-01-17T08:13:03.014Z,21.25
2024-01-17T08:15:08.466Z,21.24
2024-01-17T08:17:14.309Z,21.24
2024-01-17T08:19:19.819Z,21.23
2024-01-17T08:21:26.416Z,21.24
2024-01-17T08:23:31.946Z,21.23
2024-01-17T08:25:37.394Z,21.24
2024-01-17T08:27:42.938Z,21.23
2024-01-17T08:29:48.496Z,21.24
2024-01-17T08:31:54.023Z,21.24
2024-01-17T08:33:59.669Z,21.24
2024-01-17T08:36:05.717Z,21.24
2024-01-17T08:38:11.369Z,21.25
2024-01-17T08:40:17.010Z,21.25
2024-01-17T08:42:22.356Z,21.26
2024-01-17T08:44:27.674Z,21.27
2024-01-17T08:46:33.120Z,21.28
2024-01-17T08:48:38.678Z,21.29
2024-01-17T08:50:44.435Z,21.3
2024-01-17T08:52:49.740Z,21.3
2024-01-17T08:54:55.183Z,21.32
2024-01-17T08:57:00.445Z,21.32
2024-01-17T08:59:05.955Z,21.33
2024-01-17T09:01:11.505Z,21.34
2024-01-17T09:03:16.999Z,21.35
2024-01-17T09:05:22.596Z,21.35
2024-01-17T09:07:30.246Z,21.36
2024-01-17T09:09:38.399Z,21.37
2024-01-17T09:11:44.153Z,21.38
2024-01-17T09:13:49.873Z,21.39
2024-01-17T09:15:55.218Z,21.4
2024-01-17T09:18:00.584Z,21.42
2024-01-17T09:20:06.316Z,21.42
2024-01-17T09:22:12.056Z,21.42
2024-01-17T09:24:17.325Z,21.44
2024-01-17T09:26:22.731Z,21.45
2024-01-17T09:28:28.153Z,21.45
2024-01-17T09:30:33.551Z,21.45
2024-01-17T09:32:39.225Z,21.44
2024-01-17T09:34:45.322Z,21.43
2024-01-17T09:36:50.881Z,21.42
2024-01-17T09:38:56.709Z,21.43
2024-01-17T09:41:02.234Z,21.44
2024-01-17T09:43:11.998Z,21.45
2024-01-17T09:45:22.258Z,21.47
2024-01-17T09:47:28.081Z,21.49
2024-01-17T09:49:33.673Z,21.53
2024-01-17T09:51:39.273Z,21.54
2024-01-17T09:53:44.553Z,21.56
2024-01-17T09:55:49.956Z,21.59
2024-01-17T09:57:55.384Z,21.61
2024-01-17T10:00:01.057Z,21.63
2024-01-17T10:02:06.776Z,21.65
2024-01-17T10:04:12.023Z,21.66
2024-01-17T10:06:18.023Z,21.68
2024-01-17T10:08:23.905Z,21.7
2024-01-17T10:10:29.245Z,21.72
2024-01-17T10:12:34.734Z,21.73
2024-01-17T10:14:40.235Z,21.73
2024-01-17T10:16:45.669Z,21.75
2024-01-17T10:18:51.143Z,21.75
2024-01-17T10:20:56.884Z,21.76
2024-01-17T10:23:02.328Z,21.77
2024-01-17T10:25:07.742Z,21.75
2024-01-17T10:27:12.971Z,21.73
2024-01-17T10:29:18.732Z,21.73
2024-01-17T10:31:24.176Z,21.72
2024-01-17T10:33:29.865Z,21.72
2024-01-17T10:35:36.341Z,21.71
2024-01-17T10:37:42.012Z,21.71
2024-01-17T10:39:47.558Z,21.71
2024-01-17T10:41:53.218Z,21.71
2024-01-17T10:43:59.043Z,21.7
2024-01-17T10:46:04.407Z,21.71
2024-01-17T10:48:09.994Z,21.71
2024-01-17T10:50:15.881Z,21.7
2024-01-17T10:52:23.008Z,21.71
2024-01-17T10:54:32.518Z,21.71
2024-01-17T10:56:38.047Z,21.73
2024-01-17T10:58:43.478Z,21.73
2024-01-17T11:00:49.075Z,21.76
2024-01-17T11:02:54.688Z,21.76
2024-01-17T11:05:00.329Z,21.77
2024-01-17T11:07:05.878Z,21.77
2024-01-17T11:09:11.668Z,21.76
2024-01-17T11:11:17.452Z,21.76
2024-01-17T11:13:22.884Z,21.76
2024-01-17T11:15:28.238Z,21.75
2024-01-17T11:17:36.229Z,21.75
2024-01-17T11:19:42.613Z,21.74
2024-01-17T11:21:48.298Z,21.73
2024-01-17T11:23:53.994Z,21.72
2024-01-17T11:25:59.960Z,21.72
2024-01-17T11:28:05.571Z,21.72
2024-01-17T11:30:10.945Z,21.7
2024-01-17T11:32:16.426Z,21.7
2024-01-17T11:34:21.998Z,21.69
2024-01-17T11:36:28.079Z,21.69
2024-01-17T11:38:33.818Z,21.68
2024-01-17T11:40:39.761Z,21.68
2024-01-17T11:42:45.202Z,21.67
2024-01-17T11:44:58.296Z,21.66
2024-01-17T11:47:18.613Z,21.66
2024-01-17T11:49:24.440Z,21.68
2024-01-17T11:51:29.977Z,21.67
2024-01-17T11:53:35.575Z,21.68
2024-01-17T11:55:42.201Z,21.67
2024-01-17T11:57:47.570Z,21.68
2024-01-17T11:59:52.886Z,21.69
2024-01-17T12:01:58.217Z,21.7
2024-01-17T12:04:03.665Z,21.72
2024-01-17T12:06:09.342Z,21.75
2024-01-17T12:08:15.678Z,21.77
2024-01-17T12:10:21.324Z,21.79
2024-01-17T12:12:26.775Z,21.8
2024-01-17T12:14:32.396Z,21.8
2024-01-17T12:16:37.941Z,21.8
2024-01-17T12:18:43.357Z,21.8
2024-01-17T12:20:49.358Z,21.8
2024-01-17T12:22:54.781Z,21.81
2024-01-17T12:25:00.054Z,21.8
2024-01-17T12:27:05.586Z,21.8
2024-01-17T12:29:11.324Z,21.79
2024-01-17T12:31:17.057Z,21.79
2024-01-17T12:33:24.979Z,21.78
2024-01-17T12:35:31.908Z,21.79
2024-01-17T12:37:37.668Z,21.78
2024-01-17T12:39:43.193Z,21.78
2024-01-17T12:41:48.567Z,21.78
2024-01-17T12:43:54.178Z,21.78
2024-01-17T12:45:59.525Z,21.75
2024-01-17T12:48:05.131Z,21.71
2024-01-17T12:50:10.922Z,21.7
2024-01-17T12:52:16.343Z,21.69
2024-01-17T12:54:22.574Z,21.69
2024-01-17T12:56:28.387Z,21.68
2024-01-17T12:58:33.590Z,21.68
2024-01-17T13:00:39.107Z,21.67
2024-01-17T13:02:45.011Z,21.67
2024-01-17T13:04:50.406Z,21.67
2024-01-17T13:06:55.710Z,21.68
2024-01-17T13:09:01.543Z,21.69
2024-01-17T13:11:06.945Z,21.7
2024-01-17T13:13:12.287Z,21.7
2024-01-17T13:15:17.689Z,21.69
2024-01-17T13:17:23.366Z,21.67
2024-01-17T13:19:28.724Z,21.64
2024-01-17T13:21:34.554Z,21.61
2024-01-17T13:23:39.994Z,21.6
2024-01-17T13:25:45.748Z,21.58
2024-01-17T13:27:51.096Z,21.56
2024-01-17T13:29:56.528Z,21.54
2024-01-17T13:32:02.182Z,21.53
2024-01-17T13:34:07.706Z,21.52
2024-01-17T13:36:13.985Z,21.51
2024-01-17T13:38:19.517Z,21.52
2024-01-17T13:40:24.862Z,21.5
2024-01-17T13:42:30.266Z,21.48
2024-01-17T13:44:35.734Z,21.47
2024-01-17T13:46:41.177Z,21.47
2024-01-17T13:48:46.698Z,21.46
2024-01-17T13:50:54.652Z,21.47
2024-01-17T13:53:00.337Z,21.47
2024-01-17T13:55:05.795Z,21.48
2024-01-17T13:57:11.082Z,21.5
2024-01-17T13:59:16.476Z,21.52
2024-01-17T14:01:21.977Z,21.53
2024-01-17T14:03:30.315Z,21.54
2024-01-17T14:05:38.369Z,21.55
2024-01-17T14:07:43.862Z,21.56
2024-01-17T14:09:49.343Z,21.58
2024-01-17T14:11:56.127Z,21.61
2024-01-17T14:14:01.577Z,21.63
2024-01-17T14:16:07.172Z,21.64
2024-01-17T14:18:12.533Z,21.67
2024-01-17T14:20:18.504Z,21.72
2024-01-17T14:22:24.000Z,21.81
2024-01-17T14:24:29.458Z,21.91
2024-01-17T14:26:35.065Z,21.96
2024-01-17T14:28:45.019Z,22.03
2024-01-17T14:30:50.367Z,22.07
2024-01-17T14:32:56.150Z,22.09
2024-01-17T14:35:04.477Z,22.1
2024-01-17T14:37:09.980Z,22.1
2024-01-17T14:39:15.466Z,22.1
2024-01-17T14:41:21.137Z,21.93
2024-01-17T14:45:36.332Z,21.92
2024-01-17T14:47:41.810Z,21.94
2024-01-17T14:49:47.644Z,21.96
2024-01-17T14:51:53.459Z,21.97
2024-01-17T14:53:58.903Z,21.98
2024-01-17T14:56:04.659Z,22.01
2024-01-17T14:58:09.995Z,22.02
2024-01-17T15:00:15.556Z,22.02
2024-01-17T15:02:21.174Z,22.03
2024-01-17T15:04:26.728Z,22.04
2024-01-17T15:06:32.129Z,22.05
2024-01-17T15:08:37.946Z,22.05
2024-01-17T15:10:43.359Z,22.05
2024-01-17T15:12:48.632Z,22.06
2024-01-17T15:14:54.060Z,22.07
2024-01-17T15:17:00.824Z,22.08
2024-01-17T15:19:09.713Z,22.1
2024-01-17T15:21:16.339Z,22.12
2024-01-17T15:23:21.824Z,22.14
2024-01-17T15:25:27.154Z,22.16
2024-01-17T15:27:32.365Z,22.19
2024-01-17T15:29:37.839Z,22.21
2024-01-17T15:31:43.485Z,22.24
2024-01-17T15:33:49.289Z,22.26
2024-01-17T15:35:54.810Z,22.28
2024-01-17T15:38:00.520Z,22.3
2024-01-17T15:40:05.970Z,22.32
2024-01-17T15:42:11.644Z,22.35
2024-01-17T15:44:17.051Z,22.37
2024-01-17T15:46:22.351Z,22.4
2024-01-17T15:48:28.002Z,22.43
2024-01-17T15:50:35.997Z,22.43
2024-01-17T15:52:43.413Z,22.43
2024-01-17T15:54:48.980Z,22.41
2024-01-17T15:56:54.400Z,22.4
2024-01-17T15:59:00.048Z,22.39
2024-01-17T16:01:05.517Z,22.38
2024-01-17T16:03:10.948Z,22.37
2024-01-17T16:05:16.578Z,22.35
2024-01-17T16:07:22.387Z,22.34
2024-01-17T16:09:28.216Z,22.33
2024-01-17T16:11:33.807Z,22.32
2024-01-17T16:13:39.136Z,22.32
2024-01-17T16:15:44.797Z,22.31
2024-01-17T16:17:50.276Z,22.3
2024-01-17T16:19:55.927Z,22.29
2024-01-17T16:22:01.647Z,22.29
2024-01-17T16:24:07.119Z,22.29
2024-01-17T16:26:12.599Z,22.29
2024-01-17T16:28:18.153Z,22.29
2024-01-17T16:30:23.490Z,22.28
2024-01-17T16:32:29.201Z,22.28
2024-01-17T16:34:34.783Z,22.28
2024-01-17T16:36:40.428Z,22.28
2024-01-17T16:38:46.326Z,22.29
2024-01-17T16:40:51.912Z,22.3
2024-01-17T16:42:57.479Z,22.31
2024-01-17T16:45:02.865Z,22.31
2024-01-17T16:47:08.541Z,22.32
2024-01-17T16:49:14.080Z,22.35
2024-01-17T16:51:20.069Z,22.38
2024-01-17T16:53:25.669Z,22.38
2024-01-17T16:55:31.027Z,22.39
2024-01-17T16:57:36.674Z,22.41
2024-01-17T16:59:42.131Z,22.4
2024-01-17T17:01:47.538Z,22.4
2024-01-17T17:03:52.992Z,22.4
2024-01-17T17:05:58.987Z,22.41
2024-01-17T17:08:04.688Z,22.44
2024-01-17T17:10:10.218Z,22.46
2024-01-17T17:12:15.668Z,22.47
2024-01-17T17:14:21.198Z,22.5
2024-01-17T17:16:26.649Z,22.51
2024-01-17T17:18:32.116Z,22.52
2024-01-17T17:20:38.117Z,22.53
2024-01-17T17:22:43.570Z,22.54
2024-01-17T17:24:48.998Z,22.55
2024-01-17T17:26:54.564Z,22.56
2024-01-17T17:29:00.197Z,22.35
2024-01-17T17:31:05.539Z,22.04
2024-01-17T17:33:10.962Z,21.89
2024-01-17T17:35:16.720Z,21.97
2024-01-17T17:37:22.167Z,22.08
2024-01-17T17:39:27.623Z,22.21
2024-01-17T17:41:33.028Z,22.32
2024-01-17T17:43:38.377Z,22.41
2024-01-17T17:45:43.820Z,22.49
2024-01-17T17:47:49.482Z,22.55
2024-01-17T17:49:55.314Z,22.63
2024-01-17T17:52:00.745Z,22.67
2024-01-17T17:54:05.995Z,22.72
2024-01-17T17:56:11.424Z,22.73
2024-01-17T17:58:16.658Z,22.74
2024-01-17T18:00:22.014Z,22.74
2024-01-17T18:02:27.640Z,22.75
2024-01-17T18:04:33.091Z,22.77
2024-01-17T18:06:38.582Z,22.78
2024-01-17T18:08:45.660Z,22.79
2024-01-17T18:10:52.482Z,22.8
2024-01-17T18:12:57.925Z,22.81
2024-01-17T18:15:03.343Z,22.83
2024-01-17T18:17:09.119Z,22.85
2024-01-17T18:19:14.498Z,22.88
2024-01-17T18:21:20.233Z,22.88
2024-01-17T18:23:25.731Z,22.89
2024-01-17T18:25:33.000Z,22.9
2024-01-17T18:27:41.219Z,22.92
2024-01-17T18:29:46.707Z,22.94
2024-01-17T18:31:52.212Z,22.95
2024-01-17T18:33:57.774Z,22.97
2024-01-17T18:36:03.111Z,22.98
2024-01-17T18:38:08.528Z,22.99
2024-01-17T18:40:13.973Z,22.99
2024-01-17T18:42:19.836Z,22.98
2024-01-17T18:44:25.474Z,22.97
2024-01-17T18:46:31.001Z,22.97
2024-01-17T18:48:36.740Z,22.97
2024-01-17T18:50:42.564Z,22.96
2024-01-17T18:52:47.947Z,22.96
2024-01-17T18:54:53.291Z,22.95
2024-01-17T18:56:58.678Z,22.94
2024-01-17T18:59:04.396Z,22.94
2024-01-17T19:01:09.874Z,22.94
2024-01-17T19:03:15.617Z,22.93
2024-01-17T19:05:21.122Z,22.93
2024-01-17T19:07:26.650Z,22.92
2024-01-17T19:09:31.889Z,22.9
2024-01-17T19:11:37.655Z,22.89
2024-01-17T19:13:43.084Z,22.89
2024-01-17T19:15:48.423Z,22.88
2024-01-17T19:17:54.115Z,22.88
2024-01-17T19:20:00.476Z,22.87
2024-01-17T19:22:06.582Z,22.86
2024-01-17T19:24:11.979Z,22.85
2024-01-17T19:26:17.246Z,22.84
2024-01-17T19:28:22.601Z,22.81
2024-01-17T19:30:28.047Z,22.81
2024-01-17T19:32:33.702Z,22.79
2024-01-17T19:34:39.440Z,22.78
2024-01-17T19:36:45.293Z,22.76
2024-01-17T19:38:50.723Z,22.76
2024-01-17T19:40:56.153Z,22.76
2024-01-17T19:43:01.390Z,22.75
2024-01-17T19:45:06.904Z,22.76
2024-01-17T19:47:12.402Z,22.76
2024-01-17T19:49:31.178Z,22.75
2024-01-17T19:51:39.128Z,22.76
2024-01-17T19:53:44.500Z,22.75
2024-01-17T19:55:50.096Z,22.74
2024-01-17T19:57:55.651Z,22.73
2024-01-17T20:00:01.291Z,22.73
2024-01-17T20:02:06.939Z,22.73
2024-01-17T20:04:12.488Z,22.74
2024-01-17T20:06:18.042Z,22.75
2024-01-17T20:08:23.659Z,22.76
2024-01-17T20:10:28.909Z,22.77
2024-01-17T20:12:34.673Z,22.79
2024-01-17T20:14:40.192Z,22.79
2024-01-17T20:16:45.739Z,22.8
2024-01-17T20:18:51.574Z,22.8
2024-01-17T20:20:57.269Z,22.8
2024-01-17T20:23:02.770Z,22.82
2024-01-17T20:25:08.144Z,22.83
2024-01-17T20:27:13.665Z,22.82
2024-01-17T20:29:19.498Z,22.81
2024-01-17T20:31:24.943Z,22.8
2024-01-17T20:33:30.382Z,22.79
2024-01-17T20:35:36.441Z,22.79
2024-01-17T20:37:41.765Z,22.77
2024-01-17T20:39:47.213Z,22.77
2024-01-17T20:41:52.871Z,22.78
2024-01-17T20:43:58.289Z,22.76
2024-01-17T20:46:03.793Z,22.74
2024-01-17T20:48:09.410Z,22.73
2024-01-17T20:50:15.347Z,22.73
2024-01-17T20:52:20.740Z,22.73
2024-01-17T20:54:26.330Z,22.72
2024-01-17T20:56:31.958Z,22.71
2024-01-17T20:58:37.386Z,22.71
2024-01-17T21:00:42.705Z,22.73
2024-01-17T21:02:48.511Z,22.74
2024-01-17T21:04:54.260Z,22.75
2024-01-17T21:06:59.864Z,22.76
2024-01-17T21:09:05.552Z,22.78
2024-01-17T21:11:11.066Z,22.78
2024-01-17T21:13:16.505Z,22.79
2024-01-17T21:15:21.750Z,22.81
2024-01-17T21:17:27.311Z,22.82
2024-01-17T21:19:32.979Z,22.82
2024-01-17T21:21:38.476Z,22.84
2024-01-17T21:23:43.903Z,22.84
2024-01-17T21:25:49.497Z,22.85
2024-01-17T21:27:54.987Z,22.85
2024-01-17T21:30:00.570Z,22.85
2024-01-17T21:32:06.083Z,22.85
2024-01-17T21:34:11.592Z,22.85
2024-01-17T21:36:17.824Z,22.86
2024-01-17T21:38:23.308Z,22.85
2024-01-17T21:40:28.643Z,22.86
2024-01-17T21:42:34.036Z,22.86
2024-01-17T21:44:39.753Z,22.84
2024-01-17T21:46:45.274Z,22.85
2024-01-17T21:48:50.906Z,22.84
2024-01-17T21:50:56.923Z,22.84
2024-01-17T21:53:02.426Z,22.84
2024-01-17T21:55:09.596Z,22.83
2024-01-17T21:57:16.996Z,22.83
2024-01-17T21:59:22.418Z,22.83
2024-01-17T22:01:28.048Z,22.83
2024-01-17T22:03:33.812Z,22.83
2024-01-17T22:05:39.899Z,22.83
2024-01-17T22:07:45.509Z,22.83
2024-01-17T22:09:50.877Z,22.84
2024-01-17T22:12:01.045Z,22.84
2024-01-17T22:14:06.854Z,22.84
2024-01-17T22:16:12.201Z,22.84
2024-01-17T22:18:17.716Z,22.84
2024-01-17T22:20:23.468Z,22.84
2024-01-17T22:22:28.818Z,22.84
2024-01-17T22:24:34.306Z,22.85
2024-01-17T22:26:39.893Z,22.85
2024-01-17T22:28:45.257Z,22.85
2024-01-17T22:30:50.593Z,22.85
2024-01-17T22:32:56.421Z,22.85
2024-01-17T22:35:02.170Z,22.85
2024-01-17T22:37:07.718Z,22.85
2024-01-17T22:39:13.207Z,22.84
2024-01-17T22:41:18.897Z,22.84
2024-01-17T22:43:24.263Z,22.84
2024-01-17T22:45:29.815Z,22.85
2024-01-17T22:47:35.458Z,22.84
2024-01-17T22:49:40.891Z,22.84
2024-01-17T22:51:46.527Z,22.84
2024-01-17T22:53:52.095Z,22.84
2024-01-17T22:55:57.505Z,22.83
2024-01-17T22:58:02.930Z,22.83
2024-01-17T23:00:08.372Z,22.83
2024-01-17T23:02:13.819Z,22.83
2024-01-17T23:04:19.318Z,22.84
2024-01-17T23:06:25.157Z,22.84
2024-01-17T23:08:31.067Z,22.84
2024-01-17T23:10:36.513Z,22.85
2024-01-17T23:12:41.837Z,22.85
2024-01-17T23:14:47.186Z,22.86
2024-01-17T23:16:52.606Z,22.85
2024-01-17T23:18:58.155Z,22.85
2024-01-17T23:21:04.178Z,22.85
2024-01-17T23:23:09.542Z,22.84
2024-01-17T23:25:14.791Z,22.85
2024-01-17T23:27:20.134Z,22.85
2024-01-17T23:29:25.556Z,22.85
2024-01-17T23:31:30.905Z,22.85
2024-01-17T23:33:36.547Z,22.85
2024-01-17T23:35:42.378Z,22.85
2024-01-17T23:37:47.967Z,22.85
2024-01-17T23:39:53.379Z,22.85
2024-01-17T23:41:58.717Z,22.86
2024-01-17T23:44:04.147Z,22.85
2024-01-17T23:46:09.598Z,22.86
2024-01-17T23:48:15.030Z,22.86
2024-01-17T23:50:20.898Z,22.86
2024-01-17T23:52:26.210Z,22.85
2024-01-17T23:54:31.853Z,22.85
2024-01-17T23:56:37.617Z,22.84
2024-01-17T23:58:43.353Z,22.84
